createdAt,value
2022-12-03T12:43:34.960Z,9.06
2022-12-03T12:46:46.071Z,9.06
2022-12-03T12:49:01.601Z,9.06
2022-12-03T12:51:29.564Z,9.35
2022-12-03T12:53:57.479Z,9.38
2022-12-03T12:56:26.318Z,9.70
2022-12-03T12:58:54.490Z,9.85
2022-12-03T13:01:26.471Z,9.88
2022-12-03T13:03:54.825Z,9.96
2022-12-03T13:06:31.339Z,9.87
2022-12-03T13:09:01.270Z,10.01
2022-12-03T13:11:45.843Z,9.99
2022-12-03T13:14:19.891Z,10.11
2022-12-03T13:16:49.259Z,10.22
2022-12-03T13:19:23.169Z,10.19
2022-12-03T13:22:03.225Z,9.88
2022-12-03T13:24:37.041Z,9.80
2022-12-03T13:27:13.936Z,9.92
2022-12-03T13:29:42.306Z,10.30
2022-12-03T13:32:16.036Z,10.14
2022-12-03T13:34:44.986Z,10.33
2022-12-03T13:37:15.783Z,10.23
2022-12-03T13:39:51.148Z,10.01
2022-12-03T13:42:41.566Z,10.06
2022-12-03T13:45:15.119Z,10.26
2022-12-03T13:47:47.030Z,10.08
2022-12-03T13:50:24.583Z,10.22
2022-12-03T13:52:53.121Z,10.06
2022-12-03T13:55:31.472Z,9.99
2022-12-03T13:57:59.393Z,9.94
2022-12-03T14:00:26.968Z,9.91
2022-12-03T14:02:55.028Z,9.95
2022-12-03T14:05:22.692Z,9.96
2022-12-03T14:07:50.273Z,9.98
2022-12-03T14:10:18.286Z,10.02
2022-12-03T14:12:45.814Z,9.99
2022-12-03T14:15:14.400Z,9.96
2022-12-03T14:17:42.388Z,9.99
2022-12-03T14:20:10.670Z,10.03
2022-12-03T14:22:39.133Z,9.88
2022-12-03T14:25:07.374Z,9.75
2022-12-03T14:27:35.354Z,9.72
2022-12-03T14:30:04.112Z,9.72
2022-12-03T14:32:32.027Z,9.68
2022-12-03T14:35:00.462Z,9.66
2022-12-03T14:37:29.592Z,9.61
2022-12-03T14:39:57.585Z,9.43
2022-12-03T14:42:25.355Z,9.43
2022-12-03T14:44:52.962Z,9.34
2022-12-03T14:47:25.264Z,9.38
2022-12-03T14:49:53.326Z,9.42
2022-12-03T14:52:21.585Z,9.20
2022-12-03T14:54:49.506Z,9.28
2022-12-03T14:57:17.329Z,9.37
2022-12-03T14:59:47.033Z,9.24
2022-12-03T15:02:14.696Z,9.18
2022-12-03T15:04:42.301Z,9.01
2022-12-03T15:07:10.158Z,8.86
2022-12-03T15:09:37.975Z,8.74
2022-12-03T15:12:06.052Z,9.23
2022-12-03T15:14:34.043Z,9.28
2022-12-03T15:17:01.686Z,9.28
2022-12-03T15:19:29.571Z,9.21
2022-12-03T15:21:57.397Z,8.60
2022-12-03T15:24:24.928Z,8.55
2022-12-03T15:26:53.577Z,8.59
2022-12-03T15:29:21.814Z,8.56
2022-12-03T15:31:49.413Z,8.60
2022-12-03T15:34:22.182Z,8.50
2022-12-03T15:36:51.238Z,8.59
2022-12-03T15:39:19.465Z,8.49
2022-12-03T15:41:47.123Z,8.42
2022-12-03T15:44:15.114Z,8.42
2022-12-03T15:46:42.732Z,8.54
2022-12-03T15:49:10.325Z,8.55
2022-12-03T15:51:38.193Z,8.66
2022-12-03T15:54:06.547Z,8.58
2022-12-03T15:56:37.635Z,8.26
2022-12-03T15:59:06.026Z,8.16
2022-12-03T16:01:33.989Z,8.10
2022-12-03T16:04:02.173Z,8.14
2022-12-03T16:06:30.074Z,8.03
2022-12-03T16:08:57.771Z,7.99
2022-12-03T16:11:26.053Z,7.92
2022-12-03T16:13:53.605Z,8.19
2022-12-03T16:16:21.224Z,8.16
2022-12-03T16:18:49.189Z,7.82
2022-12-03T16:21:18.860Z,7.66
2022-12-03T16:23:49.889Z,7.87
2022-12-03T16:26:17.438Z,7.78
2022-12-03T16:28:45.088Z,7.82
2022-12-03T16:31:13.187Z,7.55
2022-12-03T16:33:40.727Z,7.86
2022-12-03T16:36:08.640Z,7.82
2022-12-03T16:38:36.831Z,7.81
2022-12-03T16:41:04.492Z,7.57
2022-12-03T16:43:35.645Z,7.53
2022-12-03T16:46:20.396Z,7.24
2022-12-03T16:48:48.582Z,7.34
2022-12-03T16:51:19.383Z,7.60
2022-12-03T16:53:48.267Z,7.69
2022-12-03T16:56:16.961Z,7.52
2022-12-03T16:58:45.212Z,7.43
2022-12-03T17:01:13.068Z,7.34
2022-12-03T17:03:42.237Z,7.37
2022-12-03T17:06:10.053Z,7.47
2022-12-03T17:08:37.732Z,7.44
2022-12-03T17:11:05.889Z,7.36
2022-12-03T17:13:33.563Z,7.52
2022-12-03T17:16:02.113Z,7.57
2022-12-03T17:18:30.146Z,7.72
2022-12-03T17:20:58.008Z,7.35
2022-12-03T17:23:25.633Z,7.41
2022-12-03T17:25:53.501Z,7.37
2022-12-03T17:28:21.038Z,7.48
2022-12-03T17:30:48.717Z,7.52
2022-12-03T17:33:16.684Z,7.21
2022-12-03T17:35:45.596Z,7.14
2022-12-03T17:38:13.118Z,7.08
2022-12-03T17:40:41.159Z,7.04
2022-12-03T17:43:08.710Z,7.05
2022-12-03T17:45:36.830Z,6.91
2022-12-03T17:48:05.462Z,7.00
2022-12-03T17:50:34.291Z,7.04
2022-12-03T17:53:05.359Z,7.08
2022-12-03T17:55:41.004Z,6.76
2022-12-03T17:58:13.335Z,6.99
2022-12-03T18:00:41.611Z,7.22
2022-12-03T18:03:09.502Z,7.11
2022-12-03T18:05:37.180Z,7.32
2022-12-03T18:08:05.070Z,7.23
2022-12-03T18:10:32.992Z,7.30
2022-12-03T18:13:02.107Z,7.29
2022-12-03T18:15:30.719Z,7.23
2022-12-03T18:17:58.981Z,6.91
2022-12-03T18:20:26.731Z,6.93
2022-12-03T18:22:54.353Z,6.95
2022-12-03T18:25:26.042Z,7.02
2022-12-03T18:27:53.638Z,6.88
2022-12-03T18:30:21.407Z,6.86
2022-12-03T18:32:52.993Z,6.92
2022-12-03T18:35:20.813Z,6.57
2022-12-03T18:37:50.815Z,6.62
2022-12-03T18:40:23.927Z,6.69
2022-12-03T18:42:51.700Z,6.99
2022-12-03T18:45:20.024Z,6.76
2022-12-03T18:47:47.793Z,6.75
2022-12-03T18:50:15.449Z,6.55
2022-12-03T18:52:43.418Z,6.77
2022-12-03T18:55:18.835Z,6.89
2022-12-03T18:57:47.417Z,6.45
2022-12-03T19:00:16.046Z,6.37
2022-12-03T19:03:02.607Z,6.40
2022-12-03T19:05:34.815Z,6.74
2022-12-03T19:08:03.495Z,6.63
2022-12-03T19:10:31.860Z,6.66
2022-12-03T19:12:59.710Z,7.10
2022-12-03T19:15:27.649Z,7.25
2022-12-03T19:17:57.656Z,7.20
2022-12-03T19:20:25.393Z,7.21
2022-12-03T19:22:53.260Z,7.22
2022-12-03T19:25:21.814Z,7.27
2022-12-03T19:27:50.793Z,7.28
2022-12-03T19:30:19.220Z,7.28
2022-12-03T19:32:51.608Z,7.02
2022-12-03T19:35:21.345Z,6.89
2022-12-03T19:37:50.190Z,6.89
2022-12-03T19:40:18.254Z,7.10
2022-12-03T19:42:46.484Z,7.03
2022-12-03T19:45:14.767Z,6.89
2022-12-03T19:47:42.789Z,6.85
2022-12-03T19:50:11.326Z,7.03
2022-12-03T19:52:39.379Z,6.93
2022-12-03T19:55:07.617Z,7.03
2022-12-03T19:57:35.561Z,7.08
2022-12-03T20:00:05.414Z,7.03
2022-12-03T20:02:39.999Z,7.05
2022-12-03T20:05:08.313Z,7.07
2022-12-03T20:07:36.148Z,7.11
2022-12-03T20:10:04.955Z,6.97
2022-12-03T20:12:33.284Z,7.11
2022-12-03T20:15:01.118Z,6.92
2022-12-03T20:17:28.796Z,6.68
2022-12-03T20:19:57.249Z,6.65
2022-12-03T20:22:25.628Z,6.53
2022-12-03T20:24:53.680Z,6.44
2022-12-03T20:27:23.155Z,6.65
2022-12-03T20:29:51.252Z,6.83
2022-12-03T20:32:19.182Z,6.79
2022-12-03T20:34:47.262Z,6.54
2022-12-03T20:37:15.222Z,6.40
2022-12-03T20:39:43.187Z,6.54
2022-12-03T20:42:11.688Z,6.83
2022-12-03T20:44:39.527Z,6.14
2022-12-03T20:47:07.373Z,6.07
2022-12-03T20:49:35.745Z,6.50
2022-12-03T20:52:04.884Z,6.58
2022-12-03T20:54:32.839Z,6.31
2022-12-03T20:57:00.997Z,6.48
2022-12-03T20:59:29.027Z,6.85
2022-12-03T21:01:56.884Z,7.05
2022-12-03T21:04:24.870Z,6.60
2022-12-03T21:06:52.442Z,6.72
2022-12-03T21:09:20.277Z,6.63
2022-12-03T21:11:48.443Z,6.72
2022-12-03T21:14:16.086Z,7.08
2022-12-03T21:19:38.562Z,7.13
2022-12-03T21:22:06.574Z,6.97
2022-12-03T21:24:34.452Z,6.71
2022-12-03T21:27:03.690Z,6.63
2022-12-03T21:29:31.594Z,6.64
2022-12-03T21:31:59.396Z,6.70
2022-12-03T21:34:31.327Z,6.92
2022-12-03T21:37:03.614Z,6.87
2022-12-03T21:39:31.755Z,6.91
2022-12-03T21:42:33.353Z,6.75
2022-12-03T21:44:47.211Z,6.75
2022-12-03T21:47:14.900Z,6.74
2022-12-03T21:49:42.666Z,6.56
2022-12-03T21:52:10.995Z,6.49
2022-12-03T21:54:38.572Z,5.90
2022-12-03T21:57:06.375Z,6.12
2022-12-03T21:59:34.653Z,6.32
2022-12-03T22:02:02.547Z,6.34
2022-12-03T22:04:30.573Z,6.17
2022-12-03T22:06:58.130Z,6.04
2022-12-03T22:09:26.891Z,5.87
2022-12-03T22:11:56.951Z,5.92
2022-12-03T22:14:25.093Z,5.23
2022-12-03T22:16:52.680Z,5.76
2022-12-03T22:19:24.758Z,5.74
2022-12-03T22:21:52.488Z,5.77
2022-12-03T22:24:20.378Z,5.80
2022-12-03T22:26:47.918Z,5.51
2022-12-03T22:29:15.671Z,5.55
2022-12-03T22:31:44.346Z,5.62
2022-12-03T22:34:12.190Z,5.74
2022-12-03T22:36:39.699Z,5.35
2022-12-03T22:39:07.583Z,5.31
2022-12-03T22:41:35.166Z,5.39
2022-12-03T22:44:02.774Z,5.47
2022-12-03T22:46:30.879Z,5.27
2022-12-03T22:49:01.810Z,5.34
2022-12-03T22:51:33.025Z,5.15
2022-12-03T22:54:01.866Z,5.23
2022-12-03T22:56:30.580Z,5.18
2022-12-03T22:58:58.760Z,5.16
2022-12-03T23:01:32.170Z,5.15
2022-12-03T23:04:01.187Z,5.09
2022-12-03T23:06:30.523Z,5.10
2022-12-03T23:08:58.863Z,5.12
2022-12-03T23:11:27.490Z,5.03
2022-12-03T23:13:55.188Z,4.88
2022-12-03T23:16:26.734Z,4.96
2022-12-03T23:18:54.801Z,4.97
2022-12-03T23:21:29.977Z,4.98
2022-12-03T23:23:59.445Z,4.90
2022-12-03T23:26:28.365Z,4.81
2022-12-03T23:28:56.624Z,4.83
2022-12-03T23:31:27.829Z,4.80
2022-12-03T23:33:56.963Z,4.84
2022-12-03T23:36:27.195Z,4.89
2022-12-03T23:38:54.879Z,4.83
2022-12-03T23:41:23.950Z,4.88
2022-12-03T23:43:52.453Z,4.94
2022-12-03T23:46:23.725Z,4.82
2022-12-03T23:48:52.223Z,5.05
2022-12-03T23:51:23.799Z,5.00
2022-12-03T23:53:53.179Z,5.02
2022-12-03T23:56:24.237Z,4.97
2022-12-03T23:58:51.806Z,4.89
